Accueil
METAR-TAF:

METAR-TAF

Aéroports :

Benson, Angleterre

latitude: 51-37N, longitude: 001-05W, altitude: 63 m

Observation

Le bulletin a été fait il y a 33 minutes, à 21:50 UTC
Vent 4 kt de ouest/nord-ouest
Température 11°C
Humidité 87%
Pression 1030 hPa
Visibilité 10 km ou plus

METAR: EGUB 232150Z AUTO 30004KT 9999 // OVC140/// 11/09 Q1030

Heure: 23:23 (22:23 UTC)

Prévision

Le bulletin a été fait il y a 6 heures et 9 minutes, à 16:14 UTC
Prévision valable du 23 à 18 UTC au 23 à 22 UTC
Vent 6 kt de ouest/nord-ouest
Visibilité 10 km ou plus
pas de nuages en-dessous de 1500 mètres et pas de cumulonimbus.
Probabilité 30%
du 23 à 18 UTC au 23 à 22 UTC
Nuages épars à une hauteur de 2000 ft

TAF: EGUB 231614Z 2318/2322 30006KT CAVOK PROB30 2318/2322 SCT020

Observations et prévisions météorologiques de plus de 4000 aéroports (messages METAR et TAF).

Les stations disponibles sont représentées par des disques jaunes et rouges sur la carte.

Passer la souris dessus pour voir le nom de la station.

Cliquer dessus pour voir les observations et prévisions météorologiques.

Pour changer de carte: cliquez sur les boutons verts avec une croix noire pour zoomer, sur le bouton vert avec un tiret pour effectuer un zoom arrière, ou sur les flèches vertes pour les cartes adjacentes.


METAR-TAF: